Portada
METAR-TAF:

METAR-TAF

Aeroports :

Asaluyeh, Iran

latitud: 27-22-46N, longitud: 52-44-15E, altitud: 8 m

Observació

L'informe es va fer fa 1 hora i 9 minuts, a les 07:00 UTC
Vent 2 kt amb direcció variable
Temperatura 41°C
Humitat 43%
Pressió 997 hPa
Visibilitat: 5000 m
calitja

METAR: OIBP 190700Z VRB02KT 5000 HZ NSC 41/26 Q0997 A2944

Hora: 12:39 (08:09 UTC)

Pronòstic

L'informe es va fer fa 3 hores i 9 minuts, a les 05:00 UTC
Pronòstic vàlid del 19 a les 06 UTC al 19 a les 15 UTC
Vent 8 kt del Oest/Sud-Oest
Visibilitat: 3000 m
calitja
Evolucionant progressivament
l' 19 a les 07 UTC al 19 a les 09 UTC
Visibilitat: 5000 m
calitja
Probabilitat 40%
l' 19 a les 10 UTC al 19 a les 15 UTC
Visibilitat: 3000 m
Pols estès, calitja

TAF: OIBP 190500Z 1906/1915 24008KT 3000 HZ NSC BECMG 1907/1909 5000 HZ PROB40 1910/1915 3000 DU HZ

Observacions i pronòstics meteorològics de més de 4000 aeroports (METAR i TAF).

Les estacions disponibles són els punts grocs i vermells al mapa.

Posi el ratolí al punt desitjat per veure el nom de l'estació.

Feu clic per veure les observacions i els pronòstics meteorològics.

Per canviar el mapa: feu clic els botons verds amb una creu de color negre per apropar; al botó verd amb un guió per allunyar la imatge; o en les fletxes verdes per a mapes adjacents.


METAR-TAF: